Latest Weather Observations for Warburto Point

IDS60801

Issued at 7:05 pm CST Friday 29 August 2014 (issued every 30 minutes, with the page automatically refreshed every 10 minutes)

About weather observations | Map of weather stations | Latest weather observations for SA | Other Formats
Station Details ID: 022053 Name: WARBURTO POINT Lat: -34.00 Lon: 137.53 Height: 1.0 m
Data from the previous 72 hours. | See also: Recent months for locations in South Australia
Date/Time
CST
Temp
°C
App
Temp
°C
Dew
Point
Rel
Hum
%
Delta-T
°C
Wind Press
QNH
hPa
Press
MSL
hPa
Rain
since 9 am
mm
Dir
 
Spd
km/h
Gust
km/h
Spd
kts
Gust
kts
29/07:00pm - - - - - ENE 11 13 6 7 - - -
29/06:30pm - - - - - NE 13 13 7 7 - - -
29/06:00pm - - - - - NE 13 13 7 7 - - -
29/05:30pm - - - - - NNE 11 11 6 6 - - -
29/05:00pm - - - - - NNE 11 13 6 7 - - -
29/04:30pm - - - - - NNE 13 17 7 9 - - -
29/04:00pm - - - - - NNE 15 20 8 11 - - -
29/03:30pm - - - - - NNE 13 17 7 9 - - -
29/03:00pm - - - - - NNE 15 17 8 9 - - -
29/02:30pm - - - - - NNE 15 19 8 10 - - -
29/02:00pm - - - - - N 15 17 8 9 - - -
29/01:30pm - - - - - N 15 17 8 9 - - -
29/01:00pm - - - - - NNE 15 17 8 9 - - -
29/12:30pm - - - - - N 17 19 9 10 - - -
29/12:00pm - - - - - N 17 20 9 11 - - -
29/11:30am - - - - - NNE 19 24 10 13 - - -
29/11:00am - - - - - NNE 19 24 10 13 - - -
29/10:30am - - - - - N 19 24 10 13 - - -
29/10:00am - - - - - NNE 13 17 7 9 - - -
29/09:30am - - - - - NE 13 17 7 9 - - -
29/09:00am - - - - - NE 13 17 7 9 - - -
29/08:30am - - - - - NNE 11 13 6 7 - - -
29/08:00am - - - - - NE 13 15 7 8 - - -
29/07:30am - - - - - ENE 13 15 7 8 - - -
29/07:00am - - - - - NNE 13 15 7 8 - - -
29/06:30am - - - - - NNE 13 15 7 8 - - -
29/06:00am - - - - - NE 15 17 8 9 - - -
29/05:30am - - - - - NE 15 17 8 9 - - -
29/05:00am - - - - - NE 15 17 8 9 - - -
29/04:30am - - - - - ENE 15 17 8 9 - - -
29/04:00am - - - - - E 17 19 9 10 - - -
29/03:30am - - - - - E 17 20 9 11 - - -
29/03:00am - - - - - E 15 19 8 10 - - -
29/02:30am - - - - - E 19 22 10 12 - - -
29/02:00am - - - - - E 20 24 11 13 - - -
29/01:30am - - - - - E 20 24 11 13 - - -
29/01:00am - - - - - E 22 26 12 14 - - -
29/12:30am - - - - - E 24 28 13 15 - - -
29/12:00am - - - - - E 24 28 13 15 - - -
 
Date/Time
CST
Temp
°C
App
Temp
°C
Dew
Point
Rel
Hum
%
Delta-T
°C
Wind Press
QNH
hPa
Press
MSL
hPa
Rain
since 9 am
mm
Dir
 
Spd
km/h
Gust
km/h
Spd
kts
Gust
kts
28/11:30pm - - - - - E 20 26 11 14 - - -
28/11:00pm - - - - - E 24 28 13 15 - - -
28/10:30pm - - - - - ESE 20 24 11 13 - - -
28/10:00pm - - - - - ESE 19 22 10 12 - - -
28/09:30pm - - - - - ESE 13 15 7 8 - - -
28/09:00pm - - - - - ESE 13 15 7 8 - - -
28/08:30pm - - - - - ESE 13 15 7 8 - - -
28/08:00pm - - - - - ESE 13 13 7 7 - - -
28/07:30pm - - - - - ESE 13 15 7 8 - - -
28/07:00pm - - - - - E 11 13 6 7 - - -
28/06:30pm - - - - - ESE 9 11 5 6 - - -
28/06:00pm - - - - - SE 9 11 5 6 - - -
28/05:30pm - - - - - NNE 6 7 3 4 - - -
28/05:00pm - - - - - NNE 7 9 4 5 - - -
28/04:30pm - - - - - N 7 9 4 5 - - -
28/04:00pm - - - - - N 9 9 5 5 - - -
28/03:30pm - - - - - N 9 9 5 5 - - -
28/03:00pm - - - - - N 9 11 5 6 - - -
28/02:30pm - - - - - N 11 11 6 6 - - -
28/02:00pm - - - - - N 11 11 6 6 - - -
28/01:30pm - - - - - N 11 13 6 7 - - -
28/01:00pm - - - - - N 13 17 7 9 - - -
28/12:30pm - - - - - N 15 17 8 9 - - -
28/12:00pm - - - - - N 15 19 8 10 - - -
28/11:30am - - - - - N 17 22 9 12 - - -
28/11:00am - - - - - N 20 24 11 13 - - -
28/10:30am - - - - - - - - - - - - -
28/10:00am - - - - - N 13 17 7 9 - - -
28/09:30am - - - - - NNE 15 19 8 10 - - -
28/09:00am - - - - - NNE 11 15 6 8 - - -
28/08:30am - - - - - NE 15 19 8 10 - - -
28/08:00am - - - - - ENE 17 19 9 10 - - -
28/07:30am - - - - - E 17 19 9 10 - - -
28/07:00am - - - - - E 17 19 9 10 - - -
28/06:30am - - - - - E 15 17 8 9 - - -
28/06:00am - - - - - NE 13 15 7 8 - - -
28/05:30am - - - - - NE 13 13 7 7 - - -
28/05:00am - - - - - NE 11 13 6 7 - - -
28/04:30am - - - - - NNE 11 13 6 7 - - -
28/04:00am - - - - - E 17 19 9 10 - - -
28/03:30am - - - - - E 17 20 9 11 - - -
28/03:00am - - - - - E 19 20 10 11 - - -
28/02:30am - - - - - E 20 24 11 13 - - -
28/02:00am - - - - - E 17 20 9 11 - - -
28/01:30am - - - - - E 20 26 11 14 - - -
28/01:00am - - - - - E 20 24 11 13 - - -
28/12:30am - - - - - E 19 20 10 11 - - -
28/12:00am - - - - - E 19 22 10 12 - - -
 
Date/Time
CST
Temp
°C
App
Temp
°C
Dew
Point
Rel
Hum
%
Delta-T
°C
Wind Press
QNH
hPa
Press
MSL
hPa
Rain
since 9 am
mm
Dir
 
Spd
km/h
Gust
km/h
Spd
kts
Gust
kts
27/11:30pm - - - - - E 22 26 12 14 - - -
27/11:00pm - - - - - E 19 20 10 11 - - -
27/10:30pm - - - - - ESE 17 19 9 10 - - -
27/10:00pm - - - - - ESE 15 17 8 9 - - -
27/09:30pm - - - - - ESE 19 20 10 11 - - -
27/09:00pm - - - - - E 20 24 11 13 - - -
27/08:30pm - - - - - E 19 19 10 10 - - -
27/08:00pm - - - - - SSE 11 13 6 7 - - -
27/07:30pm - - - - - SE 11 13 6 7 - - -
27/07:00pm - - - - - ESE 9 11 5 6 - - -
27/06:30pm - - - - - CALM 0 4 0 2 - - -
27/06:00pm - - - - - ESE 7 9 4 5 - - -
27/05:30pm - - - - - CALM 0 0 0 0 - - -
27/05:00pm - - - - - W 6 7 3 4 - - -
27/04:30pm - - - - - NW 7 9 4 5 - - -
27/04:00pm - - - - - N 11 13 6 7 - - -
27/03:30pm - - - - - NNW 11 13 6 7 - - -
27/03:00pm - - - - - NNW 11 13 6 7 - - -
27/02:30pm - - - - - N 11 15 6 8 - - -
27/02:00pm - - - - - N 11 13 6 7 - - -
27/01:30pm - - - - - N 11 13 6 7 - - -
27/01:00pm - - - - - N 13 13 7 7 - - -
27/12:30pm - - - - - N 13 15 7 8 - - -
27/12:00pm - - - - - N 11 15 6 8 - - -
27/11:30am - - - - - N 13 15 7 8 - - -
27/11:00am - - - - - N 15 17 8 9 - - -
27/10:30am - - - - - N 13 15 7 8 - - -
27/10:00am - - - - - NNE 15 19 8 10 - - -
27/09:30am - - - - - NNE 13 17 7 9 - - -
27/09:00am - - - - - NE 17 22 9 12 - - -
27/08:30am - - - - - NE 13 19 7 10 - - -
27/08:00am - - - - - ENE 9 13 5 7 - - -
27/07:30am - - - - - ENE 11 15 6 8 - - -
27/07:00am - - - - - ENE 15 20 8 11 - - -
27/06:30am - - - - - E 17 19 9 10 - - -
27/06:00am - - - - - E 15 15 8 8 - - -
27/05:30am - - - - - E 7 9 4 5 - - -
27/05:00am - - - - - E 11 15 6 8 - - -
27/04:30am - - - - - E 2 7 1 4 - - -
27/04:00am - - - - - ENE 2 7 1 4 - - -
27/03:30am - - - - - E 13 15 7 8 - - -
27/03:00am - - - - - E 15 17 8 9 - - -
27/02:30am - - - - - E 11 15 6 8 - - -
27/02:00am - - - - - E 13 17 7 9 - - -
27/01:30am - - - - - E 19 22 10 12 - - -
27/01:00am - - - - - E 19 20 10 11 - - -
27/12:30am - - - - - E 19 22 10 12 - - -
27/12:00am - - - - - E 17 19 9 10 - - -
 
Date/Time
CST
Temp
°C
App
Temp
°C
Dew
Point
Rel
Hum
%
Delta-T
°C
Wind Press
QNH
hPa
Press
MSL
hPa
Rain
since 9 am
mm
Dir
 
Spd
km/h
Gust
km/h
Spd
kts
Gust
kts
26/11:30pm - - - - - ESE 17 17 9 9 - - -
26/11:00pm - - - - - ESE 13 17 7 9 - - -
26/10:30pm - - - - - E 19 22 10 12 - - -
26/10:00pm - - - - - E 19 22 10 12 - - -
26/09:30pm - - - - - E 17 19 9 10 - - -
26/09:00pm - - - - - ESE 15 19 8 10 - - -
26/08:30pm - - - - - ESE 15 19 8 10 - - -
26/08:00pm - - - - - SE 15 19 8 10 - - -
26/07:30pm - - - - - SSE 15 19 8 10 - - -

Other Formats:

Comma delimited format used in spreadsheet applications
http://www.bom.gov.au/fwo/IDS60801/IDS60801.94666.axf

JavaScript Object Notation format (JSON) in row-major order
http://www.bom.gov.au/fwo/IDS60801/IDS60801.94666.json